DIRECCIÓN GENERAL DE AERONÁUTICA CIVIL
DIRECCIÓN METEOROLÓGICA DE CHILE
INFORMACIÓN METAR Y TAF

FIR SANTIAGO

Estación: SCSE
METAR SCSE 300900Z 09004KT 0200 FG VV000 11/10 Q1011=

TAF SCSE 300410Z 3006/3106 28005KT 9999 SCT015 TX18/3018Z TN09/3010Z TEMPO 3006/3012 12005KT BKN010 BECMG 3013/3015 32005KT BECMG 3016/ 3018 28007KT CAVOK=

Estación: SCER
NIL=

NIL=

Estación: SCRD
METAR SCRD 292200Z 21013KT CAVOK 22/13 Q1014=

TAF SCRD 291030Z 2912/2924 33005KT 7000 NSC TX19/2918Z TN09/2912Z TEMPO 2912/2915 2000 BR BKN005 BECMG 2916/2918 31010KT CAVOK=

Estación: SCVM
METAR SCVM 300900Z 15003KT CAVOK 13/11 Q1012=

TAF SCVM 300412Z 3006/3106 00000KT CAVOK TX25/3018Z TN08/3010Z TEMPO 3008/3013 09004KT 3000 BR BKN008 BECMG 3014/3016 33007KT BECMG 3100/ 3102 00000KT=

Estación: SCTB
METAR SCTB 292200Z 25005KT CAVOK 23/07 Q1016=

TAF SCTB 291107Z 2912/2924 VRB02KT 7000 NSC TX25/2919Z TN08/2912Z BECMG 2916/2918 23005KT 4000 HZ=

Estación: SCEL
METAR SCEL 300900Z 33003KT 310V010 5000 FU NSC 07/04 Q1014 NOSIG=

TAF SCEL 300413Z 3006/3106 VRB02KT CAVOK TX26/3018Z TN07/3010Z TEMPO 3006/3012 6000 HZ BECMG 3012/3014 02005KT BECMG 3016/3018 19010KT TEMPO 3104/3106 VRB02KT 7000 NSC=

Estación: SCSN
METAR SCSN 300900Z AUTO VRB02KT //// R/////// // ///////// 10/10 Q1013=

TAF AMD SCSN 291648Z 2917/2924 27005KT CAVOK TX19/2918Z TN10/2924Z=

Estación: SCRG
METAR SCRG 282000Z 14013KT CAVOK 19/09 Q1013=

TAF SCRG 281010Z 2812/2824 VRB02KT 9999 BKN150 TX18/2818Z TN11/2812Z BECMG 2817/2819 17010KT=

Estación: SCIC
SPECI SCIC 300922Z AUTO 19003KT 150V220 0150 R/////// FG VV002 12/12 Q1014=

TAF SCIC 291030Z 2912/2924 03005KT 9999 BKN040 TX18/2918Z TN13/2912Z BECMG 2915/2917 36005KT SCT035 BECMG 2918/2920 24005KT CAVOK=

Estación: SCCH
METAR SCCH 292200Z 19004KT 9999 BKN020 OVC070 16/14 Q1016=

TAF SCCH 291030Z 2912/2924 32008KT 5000 -SHRA SCT010 BKN025 TX16/ 2919Z TN12/2912Z BECMG 2914/2916 30006KT 9999 SCT015 BKN030 BECMG 2918/2920 SCT030=

Estación: SCIE
METAR SCIE 300900Z 17003KT 0700 0650N R02/0800N FG VV001 10/10 Q1015=

TAF SCIE 300414Z 3006/3106 00000KT 2000 BR FEW002 BKN008 BKN013 TX16/3018Z TN11/3010Z TEMPO 3006/3012 12004KT 0400 FG OVC003 BECMG 3012/3014 4000 BR BKN006 BECMG 3016/3018 22005KT 9999 SCT009 BKN015 BECMG 3020/3022 SCT020 TEMPO 3104/3106 14005KT=

Estación: SCGE
METAR SCGE 292100Z 28014KT 9999 FEW015 BKN090 OVC200 16/11 Q1016=

TAF SCGE 291030Z 2912/2924 32008KT 7000 -SHRA SCT010 BKN020 TX15/ 2918Z TN12/2912Z BECMG 2914/2916 30010KT 9999 SCT015 BKN030 BECMG 2919/2921 SCT035=


Volver